Zawiyat Shammas, Egypt
Current Conditions -  °F | °C
As of 10:00 AM on Saturday 25 Oct 2014 (Local Time) from HEMM Reporting Station
Haze Haze  
Wind Chill: 25°   Ceiling: Unl
Heat Index: 26°   Visibility: 1.2mi
Dew Point: 13°   Wind: 10mph
Humidity: 47%   Direction: 330°NNW
Pressure: 29.97"   Gusts: NA
Location:  31.52°N, 26.4°E
Report Text: HEMM 250800Z 33009KT 2000 HZ NSC 25/13 Q1015 BECMG 6000
Loading
Personal Weather Stations






























Interactive Weather Map
Tropical Storm Tracking
New forecast layout! Learn more

10-Day Weather Forecast

Advertisements
Track Severe Weather on mobile